createdAt,value
2022-10-21T00:00:27.203Z,11.65
2022-10-21T00:02:53.914Z,11.63
2022-10-21T00:05:23.038Z,11.82
2022-10-21T00:07:49.685Z,11.38
2022-10-21T00:10:16.400Z,12.48
2022-10-21T00:12:43.052Z,12.88
2022-10-21T00:15:10.509Z,13.13
2022-10-21T00:17:38.744Z,13.27
2022-10-21T00:20:07.838Z,13.90
2022-10-21T00:22:35.201Z,14.43
2022-10-21T00:25:02.119Z,14.23
2022-10-21T00:27:30.940Z,13.27
2022-10-21T00:29:57.610Z,14.13
2022-10-21T00:32:24.311Z,14.25
2022-10-21T00:34:50.965Z,14.10
2022-10-21T00:37:19.856Z,13.38
2022-10-21T00:39:46.491Z,13.55
2022-10-21T00:42:16.834Z,11.73
2022-10-21T00:44:44.211Z,13.25
2022-10-21T00:47:21.818Z,11.57
2022-10-21T00:50:01.207Z,12.07
2022-10-21T00:52:29.891Z,11.98
2022-10-21T00:54:59.308Z,12.18
2022-10-21T00:57:27.790Z,12.98
2022-10-21T00:59:59.767Z,12.60
2022-10-21T01:02:27.780Z,12.45
2022-10-21T01:04:59.241Z,12.27
2022-10-21T01:07:26.108Z,12.50
2022-10-21T01:09:52.848Z,13.20
2022-10-21T01:12:49.600Z,12.35
2022-10-21T01:15:44.965Z,12.73
2022-10-21T01:18:36.220Z,13.80
2022-10-21T01:21:35.874Z,14.40
2022-10-21T01:24:33.427Z,13.30
2022-10-21T01:27:08.665Z,14.88
2022-10-21T01:29:43.968Z,14.48
2022-10-21T01:32:33.002Z,15.38
2022-10-21T01:35:25.028Z,17.35
2022-10-21T01:38:18.779Z,15.68
2022-10-21T01:40:50.442Z,16.67
2022-10-21T01:43:37.536Z,14.88
2022-10-21T01:46:13.382Z,16.17
2022-10-21T01:48:52.716Z,17.63
2022-10-21T01:51:22.639Z,17.60
2022-10-21T01:53:56.999Z,17.83
2022-10-21T01:56:28.474Z,17.63
2022-10-21T01:58:55.819Z,18.05
2022-10-21T02:01:24.182Z,16.42
2022-10-21T02:03:56.675Z,17.92
2022-10-21T02:06:25.127Z,18.17
2022-10-21T02:08:54.255Z,19.15
2022-10-21T02:11:21.082Z,20.02
2022-10-21T02:14:05.517Z,18.38
2022-10-21T02:16:37.533Z,20.35
2022-10-21T02:19:05.917Z,21.50
2022-10-21T02:21:36.523Z,21.58
2022-10-21T02:24:26.837Z,23.65
2022-10-21T02:26:54.007Z,22.33
2022-10-21T02:29:23.713Z,21.75
2022-10-21T02:31:55.967Z,23.23
2022-10-21T02:34:42.163Z,24.10
2022-10-21T02:37:30.102Z,24.40
2022-10-21T02:40:03.834Z,22.83
2022-10-21T02:42:39.548Z,23.30
2022-10-21T02:45:07.056Z,24.45
2022-10-21T02:47:39.807Z,25.67
2022-10-21T02:50:07.082Z,27.85
2022-10-21T02:52:33.726Z,24.58
2022-10-21T02:55:00.346Z,27.35
2022-10-21T02:57:27.031Z,25.25
2022-10-21T02:59:56.098Z,25.70
2022-10-21T03:02:27.759Z,25.23
2022-10-21T03:04:58.804Z,28.23
2022-10-21T03:07:27.938Z,28.23
2022-10-21T03:09:54.540Z,28.80
2022-10-21T03:12:23.361Z,27.85
2022-10-21T03:14:50.053Z,28.52
2022-10-21T03:17:17.870Z,26.17
2022-10-21T03:19:48.955Z,25.35
2022-10-21T03:22:15.582Z,25.67
2022-10-21T03:24:42.235Z,26.50
2022-10-21T03:27:08.885Z,24.95
2022-10-21T03:29:35.583Z,25.42
2022-10-21T03:32:02.189Z,25.33
2022-10-21T03:34:28.832Z,25.67
2022-10-21T03:36:57.935Z,24.63
2022-10-21T03:39:24.639Z,23.33
2022-10-21T03:41:51.238Z,23.27
2022-10-21T03:44:17.901Z,21.75
2022-10-21T03:46:44.638Z,20.75
2022-10-21T03:49:18.401Z,21.27
2022-10-21T03:51:47.865Z,21.65
2022-10-21T03:54:14.563Z,21.90
2022-10-21T03:56:41.225Z,19.67
2022-10-21T03:59:10.003Z,20.65
2022-10-21T04:01:37.124Z,19.30
2022-10-21T04:04:04.035Z,20.27
2022-10-21T04:06:30.883Z,20.80
2022-10-21T04:08:57.726Z,20.10
2022-10-21T04:11:26.600Z,20.05
2022-10-21T04:13:53.244Z,19.85
2022-10-21T04:16:24.082Z,21.15
2022-10-21T04:18:50.817Z,20.40
2022-10-21T04:21:17.641Z,30.33
2022-10-21T04:23:48.983Z,25.25
2022-10-21T04:26:15.620Z,25.48
2022-10-21T04:28:42.253Z,27.60
2022-10-21T04:31:09.211Z,24.88
2022-10-21T04:33:35.896Z,24.08
2022-10-21T04:36:04.924Z,23.20
2022-10-21T04:38:34.119Z,23.33
2022-10-21T04:41:02.591Z,24.15
2022-10-21T04:43:30.191Z,23.98
2022-10-21T04:45:56.796Z,23.77
2022-10-21T04:48:23.612Z,22.08
2022-10-21T04:50:53.718Z,23.02
2022-10-21T04:53:21.478Z,23.02
2022-10-21T04:55:52.480Z,23.42
2022-10-21T04:58:22.512Z,22.20
2022-10-21T05:00:50.730Z,23.98
2022-10-21T05:03:18.302Z,23.70
2022-10-21T05:05:47.358Z,21.38
2022-10-21T05:08:13.996Z,22.25
2022-10-21T05:10:40.939Z,23.05
2022-10-21T05:13:07.571Z,22.77
2022-10-21T05:15:34.448Z,23.05
2022-10-21T05:18:01.126Z,23.05
2022-10-21T05:20:27.962Z,22.80
2022-10-21T05:22:54.709Z,23.05
2022-10-21T05:25:24.064Z,22.38
2022-10-21T05:27:53.366Z,23.65
2022-10-21T05:30:20.113Z,22.83
2022-10-21T05:32:46.838Z,23.05
2022-10-21T05:35:13.567Z,22.15
2022-10-21T05:37:43.103Z,20.83
2022-10-21T05:40:10.171Z,21.30
2022-10-21T05:42:37.156Z,21.23
2022-10-21T05:45:04.635Z,22.20
2022-10-21T05:47:31.268Z,21.35
2022-10-21T05:49:57.946Z,20.67
2022-10-21T05:52:24.602Z,21.05
2022-10-21T05:54:51.245Z,21.08
2022-10-21T05:57:17.876Z,20.50
2022-10-21T05:59:49.033Z,21.40
2022-10-21T06:02:15.739Z,20.00
2022-10-21T06:04:42.429Z,18.30
2022-10-21T06:07:09.380Z,19.25
2022-10-21T06:09:38.473Z,18.42
2022-10-21T06:12:06.627Z,17.23
2022-10-21T06:14:35.555Z,16.70
2022-10-21T06:17:05.842Z,16.60
2022-10-21T06:19:32.506Z,16.38
2022-10-21T06:21:59.158Z,16.30
2022-10-21T06:24:25.964Z,15.65
2022-10-21T06:26:52.604Z,14.75
2022-10-21T06:29:19.295Z,14.68
2022-10-21T06:31:46.275Z,14.98
2022-10-21T06:34:13.094Z,15.30
2022-10-21T06:36:39.746Z,14.75
2022-10-21T06:39:09.231Z,15.75
2022-10-21T06:41:35.945Z,13.77
2022-10-21T06:44:05.016Z,14.38
2022-10-21T06:46:31.756Z,13.80
2022-10-21T06:49:00.999Z,14.02
2022-10-21T06:51:29.262Z,13.85
2022-10-21T06:53:58.230Z,14.25
2022-10-21T06:56:26.720Z,14.10
2022-10-21T06:58:56.283Z,13.80
2022-10-21T07:01:34.230Z,12.63
2022-10-21T07:04:04.146Z,12.13
2022-10-21T07:06:30.942Z,14.20
2022-10-21T07:08:58.961Z,12.93
2022-10-21T07:11:27.102Z,12.45
2022-10-21T07:13:53.880Z,13.63
2022-10-21T07:16:35.553Z,12.93
2022-10-21T07:19:03.007Z,13.32
2022-10-21T07:21:31.396Z,13.95
2022-10-21T07:24:03.608Z,13.82
2022-10-21T07:26:32.069Z,14.43
2022-10-21T07:29:00.740Z,15.75
2022-10-21T07:31:29.011Z,15.80
2022-10-21T07:34:00.644Z,16.38
2022-10-21T07:36:29.866Z,16.27
2022-10-21T07:39:00.059Z,15.07
2022-10-21T07:41:33.833Z,16.23
2022-10-21T07:44:01.334Z,15.98
2022-10-21T07:46:28.248Z,15.65
2022-10-21T07:48:55.832Z,15.45
2022-10-21T07:51:28.456Z,15.70
2022-10-21T07:53:56.811Z,14.77
2022-10-21T07:56:45.346Z,14.43
2022-10-21T07:59:13.442Z,14.27
2022-10-21T08:01:44.317Z,15.75
2022-10-21T08:04:14.126Z,14.35
2022-10-21T08:06:40.949Z,15.75
2022-10-21T08:09:12.511Z,15.32
2022-10-21T08:11:41.976Z,14.63
2022-10-21T08:14:12.248Z,14.85
2022-10-21T08:16:39.656Z,14.82
2022-10-21T08:19:07.252Z,15.05
2022-10-21T08:21:34.341Z,14.32
2022-10-21T08:24:04.657Z,16.23
2022-10-21T08:26:31.794Z,13.88
2022-10-21T08:31:30.943Z,12.93
2022-10-21T08:34:00.272Z,13.50
2022-10-21T08:36:27.115Z,12.18
2022-10-21T08:38:54.402Z,11.13
2022-10-21T08:41:36.671Z,11.68
2022-10-21T08:44:15.612Z,10.70
2022-10-21T08:47:02.177Z,8.70
2022-10-21T08:50:04.411Z,8.48
2022-10-21T08:52:37.980Z,8.10
2022-10-21T08:55:20.283Z,8.18
2022-10-21T08:57:48.880Z,7.93
2022-10-21T09:00:23.162Z,7.03
2022-10-21T09:03:16.340Z,6.10
2022-10-21T09:06:01.640Z,5.03
2022-10-21T09:08:37.689Z,5.13
2022-10-21T09:11:19.842Z,4.32
2022-10-21T09:14:01.457Z,4.53
2022-10-21T09:16:53.148Z,3.92
2022-10-21T09:19:39.808Z,3.88
2022-10-21T09:22:36.158Z,3.70
2022-10-21T09:25:18.027Z,3.90
2022-10-21T09:27:55.636Z,3.78
2022-10-21T09:30:23.875Z,3.17
2022-10-21T09:32:56.395Z,3.10
2022-10-21T09:35:29.499Z,3.30
2022-10-21T09:38:14.513Z,2.67
2022-10-21T09:40:41.191Z,2.60
2022-10-21T09:43:19.645Z,2.42
2022-10-21T09:45:47.284Z,2.47
2022-10-21T09:48:22.795Z,2.75
2022-10-21T09:50:56.181Z,2.97
2022-10-21T09:53:32.987Z,2.42
2022-10-21T09:56:09.714Z,2.60
2022-10-21T09:58:42.190Z,2.75
2022-10-21T10:01:14.776Z,2.42
2022-10-21T10:03:45.567Z,3.10
2022-10-21T10:06:12.480Z,2.40
2022-10-21T10:08:47.553Z,2.20
2022-10-21T10:11:18.025Z,2.78
2022-10-21T10:13:52.985Z,2.92
2022-10-21T10:16:30.137Z,3.13
2022-10-21T10:19:20.025Z,2.35
2022-10-21T10:21:51.326Z,2.50
2022-10-21T10:24:23.140Z,2.17
2022-10-21T10:26:49.989Z,2.20
2022-10-21T10:29:28.699Z,2.20
2022-10-21T10:31:59.284Z,2.00
2022-10-21T10:35:08.118Z,1.90
2022-10-21T10:37:39.208Z,2.42
2022-10-21T10:40:09.272Z,2.38
2022-10-21T10:42:42.910Z,2.05
2022-10-21T10:45:22.128Z,2.47
2022-10-21T10:47:57.707Z,2.10
2022-10-21T10:50:46.956Z,2.30
2022-10-21T10:53:31.070Z,2.85
2022-10-21T10:58:32.559Z,2.60
2022-10-21T11:01:02.347Z,2.78
2022-10-21T11:03:43.562Z,2.42
2022-10-21T11:06:26.936Z,2.80
2022-10-21T11:08:58.724Z,2.63
2022-10-21T11:11:38.173Z,2.88
2022-10-21T11:14:16.336Z,3.03
2022-10-21T11:17:05.876Z,2.25
2022-10-21T11:19:53.744Z,2.55
2022-10-21T11:22:34.497Z,2.25
2022-10-21T11:25:16.759Z,2.10
2022-10-21T11:27:54.294Z,2.30
2022-10-21T11:30:33.702Z,2.08
2022-10-21T11:33:26.856Z,2.08
2022-10-21T11:36:28.091Z,1.85
2022-10-21T11:39:21.764Z,1.70
2022-10-21T11:42:06.590Z,1.63
2022-10-21T11:44:48.383Z,1.55
2022-10-21T11:47:28.270Z,1.58
2022-10-21T11:50:16.629Z,1.45
2022-10-21T11:53:17.025Z,1.33
2022-10-21T11:55:52.359Z,1.85
2022-10-21T11:58:48.131Z,1.63
2022-10-21T12:01:26.966Z,1.50
2022-10-21T12:04:24.397Z,1.70
2022-10-21T12:07:18.195Z,2.20
2022-10-21T12:10:02.041Z,2.13
2022-10-21T12:12:41.981Z,1.92
2022-10-21T12:15:20.592Z,1.63
2022-10-21T12:17:49.527Z,2.08
2022-10-21T12:20:26.777Z,2.60
2022-10-21T12:23:02.254Z,2.00
2022-10-21T12:25:42.372Z,2.00
2022-10-21T12:28:16.379Z,1.88
2022-10-21T12:31:19.611Z,1.70
2022-10-21T12:33:49.183Z,1.98
2022-10-21T12:36:38.603Z,2.10
2022-10-21T12:39:27.886Z,2.30
2022-10-21T12:42:06.117Z,1.85
2022-10-21T12:44:33.700Z,2.35
2022-10-21T12:47:32.800Z,2.30
2022-10-21T12:50:14.667Z,2.17
2022-10-21T12:52:49.724Z,2.60
2022-10-21T12:55:23.976Z,2.50
2022-10-21T12:58:00.491Z,3.53
2022-10-21T13:00:29.429Z,3.03
2022-10-21T13:03:00.406Z,3.45
2022-10-21T13:05:39.322Z,3.30
2022-10-21T13:08:27.328Z,3.88
2022-10-21T13:11:03.484Z,3.30
2022-10-21T13:13:42.376Z,3.50
2022-10-21T13:16:28.140Z,3.30
2022-10-21T13:19:01.720Z,3.17
2022-10-21T13:21:47.206Z,3.47
2022-10-21T13:24:28.023Z,3.13
2022-10-21T13:27:00.413Z,2.88
2022-10-21T13:29:48.379Z,3.08
2022-10-21T13:32:22.340Z,2.97
2022-10-21T13:34:55.111Z,2.65
2022-10-21T13:37:40.516Z,3.10
2022-10-21T13:40:20.023Z,2.90
2022-10-21T13:43:00.698Z,3.17
2022-10-21T13:45:42.773Z,3.25
2022-10-21T13:48:17.348Z,3.00
2022-10-21T13:50:47.019Z,2.78
2022-10-21T13:53:36.375Z,2.60
2022-10-21T13:56:08.107Z,2.28
2022-10-21T13:58:42.055Z,2.10
2022-10-21T14:01:12.011Z,1.95
2022-10-21T14:03:39.018Z,2.13
2022-10-21T14:06:08.732Z,2.20
2022-10-21T14:08:46.923Z,1.90
2022-10-21T14:11:20.836Z,1.98
2022-10-21T14:16:22.503Z,1.75
2022-10-21T14:18:53.212Z,1.70
2022-10-21T14:21:24.894Z,1.35
2022-10-21T14:23:52.953Z,1.90
2022-10-21T14:26:20.175Z,1.60
2022-10-21T14:28:51.322Z,1.55
2022-10-21T14:31:19.039Z,1.50
2022-10-21T14:33:46.936Z,1.67
2022-10-21T14:36:23.318Z,1.50
2022-10-21T14:39:05.669Z,1.77
2022-10-21T14:41:39.454Z,1.77
2022-10-21T14:46:47.684Z,1.40
2022-10-21T14:49:33.948Z,1.40
2022-10-21T14:52:07.904Z,1.48
2022-10-21T14:54:48.668Z,1.63
2022-10-21T14:57:47.509Z,1.70
2022-10-21T15:00:20.382Z,1.60
2022-10-21T15:02:50.415Z,1.40
2022-10-21T15:05:48.873Z,1.60
2022-10-21T15:08:27.357Z,1.83
2022-10-21T15:10:57.351Z,1.60
2022-10-21T15:13:25.916Z,1.90
2022-10-21T15:15:55.827Z,1.70
2022-10-21T15:18:28.099Z,1.50
2022-10-21T15:20:56.687Z,1.95
2022-10-21T15:23:35.083Z,2.00
2022-10-21T15:26:23.400Z,1.65
2022-10-21T15:28:51.275Z,1.90
2022-10-21T15:31:23.821Z,1.83
2022-10-21T15:33:54.509Z,1.55
2022-10-21T15:36:21.820Z,1.30
2022-10-21T15:38:48.672Z,1.77
2022-10-21T15:41:23.704Z,1.52
2022-10-21T15:44:11.292Z,1.48
2022-10-21T15:46:45.874Z,1.50
2022-10-21T15:49:18.654Z,1.50
2022-10-21T15:51:48.838Z,1.40
2022-10-21T15:54:19.386Z,1.50
2022-10-21T15:56:54.541Z,1.40
2022-10-21T15:59:27.375Z,1.77
2022-10-21T16:01:55.209Z,1.85
2022-10-21T16:04:22.867Z,1.35
2022-10-21T16:06:52.607Z,1.52
2022-10-21T16:09:22.703Z,1.70
2022-10-21T16:12:00.081Z,1.50
2022-10-21T16:14:30.064Z,2.00
2022-10-21T16:17:00.517Z,1.33
2022-10-21T16:19:27.828Z,1.30
2022-10-21T16:21:55.434Z,1.50
2022-10-21T16:24:22.126Z,1.38
2022-10-21T16:26:49.738Z,1.33
2022-10-21T16:29:22.491Z,1.70
2022-10-21T16:31:57.027Z,1.23
2022-10-21T16:34:23.782Z,1.58
2022-10-21T16:36:50.398Z,1.23
2022-10-21T16:39:22.387Z,1.42
2022-10-21T16:41:49.086Z,1.63
2022-10-21T16:44:18.630Z,1.30
2022-10-21T16:46:48.287Z,1.40
2022-10-21T16:49:18.259Z,1.55
2022-10-21T16:51:48.270Z,1.80
2022-10-21T16:54:15.721Z,1.92
2022-10-21T16:56:42.415Z,1.38
2022-10-21T16:59:09.086Z,1.38
2022-10-21T17:01:36.038Z,1.58
2022-10-21T17:04:03.196Z,1.88
2022-10-21T17:06:30.113Z,1.85
2022-10-21T17:08:57.847Z,1.40
2022-10-21T17:11:34.269Z,2.05
2022-10-21T17:14:04.927Z,1.80
2022-10-21T17:16:34.048Z,1.65
2022-10-21T17:19:00.968Z,1.60
2022-10-21T17:21:30.099Z,1.70
2022-10-21T17:24:00.379Z,1.88
2022-10-21T17:26:27.523Z,1.80
2022-10-21T17:28:57.426Z,1.70
2022-10-21T17:31:26.145Z,1.80
2022-10-21T17:33:54.768Z,1.77
2022-10-21T17:36:21.414Z,2.40
2022-10-21T17:38:48.281Z,2.25
2022-10-21T17:41:17.129Z,2.22
2022-10-21T17:43:46.329Z,2.00
2022-10-21T17:46:21.535Z,2.00
2022-10-21T17:48:53.009Z,2.00
2022-10-21T17:51:23.331Z,2.22
2022-10-21T17:53:54.543Z,2.50
2022-10-21T17:56:22.014Z,2.75
2022-10-21T17:58:53.509Z,2.80
2022-10-21T18:01:24.530Z,3.70
2022-10-21T18:03:52.572Z,3.10
2022-10-21T18:06:20.333Z,1.83
2022-10-21T18:08:47.508Z,3.30
2022-10-21T18:11:17.169Z,2.92
2022-10-21T18:13:47.824Z,2.05
2022-10-21T18:16:21.431Z,2.10
2022-10-21T18:18:48.954Z,2.42
2022-10-21T18:21:19.000Z,2.38
2022-10-21T18:23:49.938Z,2.33
2022-10-21T18:26:30.801Z,2.20
2022-10-21T18:29:02.814Z,2.50
2022-10-21T18:31:32.422Z,2.17
2022-10-21T18:34:00.719Z,2.63
2022-10-21T18:36:27.740Z,2.22
2022-10-21T18:38:55.111Z,2.35
2022-10-21T18:41:22.654Z,2.53
2022-10-21T18:43:55.408Z,2.65
2022-10-21T18:46:24.651Z,2.35
2022-10-21T18:48:51.822Z,2.67
2022-10-21T18:51:22.756Z,2.60
2022-10-21T18:53:53.944Z,2.65
2022-10-21T18:56:23.678Z,2.35
2022-10-21T18:58:51.211Z,2.80
2022-10-21T19:01:22.395Z,2.97
2022-10-21T19:03:56.072Z,2.63
2022-10-21T19:06:43.525Z,2.35
2022-10-21T19:09:16.232Z,2.67
2022-10-21T19:11:43.848Z,3.10
2022-10-21T19:14:14.043Z,2.90
2022-10-21T19:16:42.639Z,2.78
2022-10-21T19:19:09.563Z,2.90
2022-10-21T19:21:41.633Z,2.40
2022-10-21T19:24:08.596Z,2.90
2022-10-21T19:26:37.121Z,2.65
2022-10-21T19:29:16.588Z,2.80
2022-10-21T19:31:44.339Z,3.15
2022-10-21T19:34:15.111Z,2.60
2022-10-21T19:36:42.183Z,2.75
2022-10-21T19:39:11.745Z,2.72
2022-10-21T19:41:38.506Z,3.15
2022-10-21T19:44:05.718Z,3.20
2022-10-21T19:46:34.438Z,3.35
2022-10-21T19:49:02.759Z,2.55
2022-10-21T19:51:29.552Z,2.90
2022-10-21T19:53:57.127Z,2.72
2022-10-21T19:56:30.806Z,3.08
2022-10-21T19:59:02.514Z,3.13
2022-10-21T20:01:29.723Z,2.78
2022-10-21T20:03:56.415Z,3.38
2022-10-21T20:06:26.537Z,2.58
2022-10-21T20:08:56.776Z,2.47
2022-10-21T20:11:24.465Z,3.40
2022-10-21T20:13:51.552Z,2.67
2022-10-21T20:16:30.113Z,2.47
2022-10-21T20:18:57.296Z,2.70
2022-10-21T20:21:24.552Z,3.15
2022-10-21T20:23:54.168Z,3.05
2022-10-21T20:26:23.277Z,2.90
2022-10-21T20:28:50.954Z,3.28
2022-10-21T20:31:18.764Z,3.20
2022-10-21T20:33:48.003Z,3.33
2022-10-21T20:36:19.804Z,3.95
2022-10-21T20:38:47.699Z,3.20
2022-10-21T20:41:21.647Z,3.20
2022-10-21T20:43:52.099Z,3.15
2022-10-21T20:46:21.209Z,3.33
2022-10-21T20:48:49.748Z,3.22
2022-10-21T20:51:19.698Z,2.80
2022-10-21T20:53:55.432Z,3.10
2022-10-21T20:56:25.126Z,3.25
2022-10-21T20:58:53.934Z,3.42
2022-10-21T21:01:28.388Z,3.50
2022-10-21T21:03:59.402Z,3.15
2022-10-21T21:06:29.738Z,3.53
2022-10-21T21:09:28.982Z,3.53
2022-10-21T21:11:48.128Z,3.03
2022-10-21T21:14:17.140Z,4.20
2022-10-21T21:16:43.819Z,3.67
2022-10-21T21:19:13.009Z,3.35
2022-10-21T21:21:40.533Z,3.45
2022-10-21T21:24:07.399Z,3.22
2022-10-21T21:26:39.166Z,3.83
2022-10-21T21:29:07.175Z,3.90
2022-10-21T21:31:38.087Z,3.90
2022-10-21T21:34:05.335Z,4.10
2022-10-21T21:36:32.279Z,4.10
2022-10-21T21:38:59.123Z,4.15
2022-10-21T21:41:26.535Z,3.92
2022-10-21T21:43:54.539Z,3.40
2022-10-21T21:46:23.900Z,4.40
2022-10-21T21:48:54.185Z,4.07
2022-10-21T21:51:24.381Z,3.78
2022-10-21T21:53:52.184Z,4.03
2022-10-21T21:56:20.128Z,3.53
2022-10-21T21:58:51.412Z,3.95
2022-10-21T22:01:21.547Z,4.03
2022-10-21T22:03:51.606Z,3.97
2022-10-21T22:06:23.876Z,3.90
2022-10-21T22:08:51.173Z,4.03
2022-10-21T22:11:21.455Z,4.40
2022-10-21T22:13:50.650Z,4.18
2022-10-21T22:16:19.744Z,4.80
2022-10-21T22:18:46.541Z,3.65
2022-10-21T22:21:16.619Z,3.78
2022-10-21T22:23:44.274Z,3.83
2022-10-21T22:26:12.992Z,3.92
2022-10-21T22:28:40.550Z,2.90
2022-10-21T22:31:13.653Z,3.10
2022-10-21T22:33:41.037Z,3.13
2022-10-21T22:36:11.811Z,3.42
2022-10-21T22:38:38.546Z,3.22
2022-10-21T22:41:08.533Z,3.20
2022-10-21T22:43:39.076Z,2.67
2022-10-21T22:46:21.549Z,2.90
2022-10-21T22:48:54.994Z,2.60
2022-10-21T22:51:21.879Z,2.58
2022-10-21T22:53:53.591Z,1.80
2022-10-21T22:56:24.121Z,1.95
2022-10-21T22:58:50.784Z,1.80
2022-10-21T23:01:20.215Z,2.20
2022-10-21T23:03:46.915Z,1.50
2022-10-21T23:06:14.166Z,1.38
2022-10-21T23:08:40.957Z,1.80
2022-10-21T23:11:07.648Z,1.17
2022-10-21T23:13:34.695Z,1.30
2022-10-21T23:16:01.432Z,1.20
2022-10-21T23:18:28.259Z,0.93
2022-10-21T23:20:54.907Z,0.85
2022-10-21T23:23:22.779Z,0.73
2022-10-21T23:25:51.724Z,1.20
2022-10-21T23:30:49.947Z,0.80
2022-10-21T23:33:16.735Z,0.70
2022-10-21T23:35:43.356Z,0.70
2022-10-21T23:38:10.026Z,0.70
2022-10-21T23:40:36.670Z,0.80
2022-10-21T23:43:03.552Z,1.00
2022-10-21T23:45:32.564Z,0.88
2022-10-21T23:47:59.392Z,0.98
2022-10-21T23:50:27.101Z,1.00
2022-10-21T23:52:53.790Z,0.88
2022-10-21T23:55:20.469Z,0.70
2022-10-21T23:57:47.173Z,0.60
